Weather at Sandane Airport, Anda

Public forecast

Using degrees Celsius for public forecast. Weather courtesy of forecast.io.

Current aviation weather report (METAR) for Sandane Airport, Anda

2024/05/30 02:50 (retrieved 14 minutes ago)

ENSD 300250Z AUTO VRB02KT 9999 BKN072/// BKN170/// 10/08 Q1008 RMK WIND RWY 26 20003KT WIND 1140FT 29003KT

Closest aviation forecast (TAF) to Sandane Airport, Anda

Forecast is more than 12 hours old.

Closest forecast is Quaqtaq Airport, 2,049.4 nm (3,795.6 km) WNW.

2024/05/29 14:00 (retrieved 13 hours ago)

TAF CYHA 291340Z 2914/2921 28007KT P6SM BKN030 TEMPO 2914/2918 BKN020 BECMG 2916/2918 18008KT RMK NXT FCST BY 301400Z